Airport View

Enter AWOS ICAO identifier for current METAR.

ex. KFNL

KYKN 041356Z AUTO 13007KT 10SM CLR 23/21 A3007 RMK AO2 SLP186 T02280211

4 Jul 2020 14:49

Frequency: 119.05

Phone: 605-665-6072

Other Area AWOS: KLCG - KFSD - KLRJ - KSUX

TAF KFSD 041120Z 0412/0512 VRB04KT P6SM SKC FM041600 15008KT P6SM SKC FM050300 16004KT P6SM SKC